首页
METAR-TAF:

METAR-TAF

机场 :

洛杉矶, 加利福尼亚州, 美国

洛杉磯國際機場

纬度: 33-56-17N, 经度: 118-23-20W, 海拔: 38米

当前天气观测

该预报发布于8分钟前的04:53 UTC
风速9节,风向西转西南
温度 14°C
湿度 82%
气压 1017 hPa
能見度: 16.1公里
少量云层高于1100英尺

METAR: KLAX 270453Z 24009KT 10SM FEW011 14/11 A3002 RMK AO2 SLP165 T01390106

时间: 22:01 (05:01 UTC)

预报

该预报发布于9分钟前的04:52 UTC
预报有效从27日的 05点(UTC)到 28日的 06点(UTC)
风速11节,风向西
能見度: 10公里
散云层高于1200英尺
从 27日的 0600点(UTC)
风速6节,风向西转西南
能見度: 10公里
多云层高于1500英尺
从 27日的 0900点(UTC)
风速3节,风向多变
能見度: 10公里
阴天层高于2000英尺
从 27日的 2000点(UTC)
风速12节,风向西
能見度: 10公里
散云层高于25000英尺
从 28日的 0400点(UTC)
风速7节,风向西
能見度: 10公里
散云层高于2000英尺

TAF: KLAX 270452Z 2705/2806 26011KT P6SM SCT012 FM270600 25006KT P6SM BKN015 FM270900 VRB03KT P6SM OVC020 FM272000 26012KT P6SM SCT250 FM280400 26007KT P6SM SCT020

超过4000个机场的气象观测和天气预报(METAR&TAF报告)。

可查询的气象台以黄色和红色小点在地图上表示。

将鼠标移到小点上方,可查看气象台名称。

然后点击查看天气观测和预报。

如需切换地图:点击带黑十字的绿色按钮放大地图;点击带横线的绿色按钮缩小地图;或者点击绿色箭头查看邻近地区的地图。


METAR-TAF: